Ruleville, Mississippi
Current Conditions -  °F | °C
As of 6:35 AM on Thursday 23 Oct 2014 (Local Time) from KRNV Reporting Station
Clear Clear  
Wind Chill:   Ceiling: Unl
Heat Index:   Visibility: 10mi
Dew Point:   Wind: 3mph
Humidity: 98%   Direction: 350°N
Pressure: 30.18"   Gusts: NA
Location:  33.73°N, 90.55°W
Report Text: KRNV 231135Z AUTO 35003KT 10SM CLR 08/08 A3018 RMK AO2 T00800077
Loading
Personal Weather Stations






























Interactive Weather Map
Tropical Storm Tracking
New forecast layout! Learn more

10-Day Weather Forecast

Advertisements
Track Severe Weather on mobile